Nissos Mykonos — SYJZ — position and weather

sailwx.info

Track history (hours):
 
Tides and Currents Weather Stations Pressure Air Temp Water Temp Dewpoint Dewpoint Depression Visibility Wind Speed Wind Dir Waves Ship Positions

Nissos Mykonos

Last reported at 2016-Jul-27 01:20 UTC. Time now 2016-Jul-27 01:50 UTC.
Position N 40°05' E 024°53'.

Length 141 m; draft 5.2 m.

Type: Passenger vessel. MMSI: 240389000.

Date/timePositionNaut miles runAvg speedWind from/ knotsBaromVisibWave heightAir tempDewpointWater temp
2016-Jul-27 01:20N 40°05' E 024°53'15910.1
2016-Jul-26 09:33N 37°28' E 025°19'8019.9
2016-Jul-26 05:33N 37°44' E 023°41'1312.6
2016-Jul-26 04:33N 37°57' E 023°38'0 0.0
2016-Jul-26 03:33N 37°57' E 023°38'0 0.0
2016-Jul-26 02:33N 37°57' E 023°38'0 0.0
2016-Jul-26 01:33N 37°57' E 023°38'0 0.0
2016-Jul-26 00:33N 37°57' E 023°38'0 0.0
2016-Jul-25 23:33N 37°57' E 023°38'0 0.0
2016-Jul-25 22:34N 37°57' E 023°38'1515.0
2016-Jul-25 21:33N 37°43' E 023°46'2524.7
2016-Jul-25 20:32N 37°32' E 024°15'2424.7
2016-Jul-25 19:33N 37°31' E 024°45'1512.0
2016-Jul-25 18:20N 37°27' E 025°03'1317.0
2016-Jul-25 17:34N 37°28' E 025°19'68 5.9
2016-Jul-25 06:06N 37°38' E 023°55'1323.7
2016-Jul-25 05:33N 37°44' E 023°41'1312.8
2016-Jul-25 04:33N 37°57' E 023°38'0 0.0
2016-Jul-25 03:33N 37°57' E 023°38'0 0.0
2016-Jul-25 02:33N 37°57' E 023°38'0 0.0
2016-Jul-25 01:33N 37°57' E 023°38'0 0.0
2016-Jul-25 00:33N 37°57' E 023°38'0 0.0
2016-Jul-24 23:33N 37°57' E 023°38'3 2.9
2016-Jul-24 22:34N 37°54' E 023°38'2322.8
2016-Jul-24 21:32N 37°37' E 023°58'3124.4
2016-Jul-24 20:17N 37°31' E 024°36'3417.1
2016-Jul-24 18:16N 37°28' E 025°19'1115.3
2016-Jul-24 17:33N 37°33' E 025°31'11 1.4
2016-Jul-24 09:33N 37°28' E 025°19'6719.7
2016-Jul-24 06:09N 37°37' E 023°56'1423.4
2016-Jul-24 05:34N 37°44' E 023°41'1212.4
2016-Jul-24 04:33N 37°57' E 023°38'0 0.0
2016-Jul-24 03:33N 37°57' E 023°38'0 0.0
2016-Jul-24 02:33N 37°57' E 023°38'0 0.0
2016-Jul-24 01:33N 37°57' E 023°38'0 0.0
2016-Jul-24 00:33N 37°57' E 023°38'0 0.0
2016-Jul-23 23:33N 37°57' E 023°38'0 0.0
2016-Jul-23 22:33N 37°57' E 023°38'0 0.0
2016-Jul-23 21:33N 37°57' E 023°38'9 8.6
2016-Jul-23 20:34N 37°48' E 023°41'2724.2
2016-Jul-23 19:25N 37°33' E 024°10'2124.5
2016-Jul-23 18:33N 37°31' E 024°37'2015.2
2016-Jul-23 17:12N 37°27' E 025°02'1421.0
2016-Jul-23 16:33N 37°28' E 025°19'9 1.5
2016-Jul-23 10:19N 37°31' E 025°31'1012.6
2016-Jul-23 09:34N 37°28' E 025°19'6719.7
2016-Jul-23 06:09N 37°37' E 023°56'2414.8
2016-Jul-23 04:33N 37°57' E 023°38'0 0.0
2016-Jul-23 03:33N 37°57' E 023°38'0 0.0
2016-Jul-23 02:33N 37°57' E 023°38'0 0.0
2016-Jul-23 01:33N 37°57' E 023°38'0 0.0
2016-Jul-23 00:33N 37°57' E 023°38'0 0.0
2016-Jul-22 23:33N 37°57' E 023°38'0 0.0
2016-Jul-22 22:33N 37°57' E 023°38'1515.1
2016-Jul-22 21:34N 37°42' E 023°45'2524.7
2016-Jul-22 20:33N 37°32' E 024°13'2424.5
2016-Jul-22 19:34N 37°31' E 024°44'1512.4
2016-Jul-22 18:20N 37°27' E 025°02'1417.4
2016-Jul-22 17:33N 37°28' E 025°19'0 0.0
2016-Jul-22 09:33N 37°28' E 025°19'8120.1
2016-Jul-22 05:34N 37°45' E 023°40'1111.3
2016-Jul-22 04:33N 37°57' E 023°38'0 0.0
2016-Jul-22 03:33N 37°57' E 023°38'0 0.0
2016-Jul-22 02:33N 37°57' E 023°38'0 0.0
2016-Jul-22 01:33N 37°57' E 023°38'0 0.0
2016-Jul-22 00:33N 37°57' E 023°38'0 0.0
2016-Jul-21 23:33N 37°57' E 023°38'0 0.0
2016-Jul-21 22:33N 37°57' E 023°38'0 0.0
2016-Jul-21 21:33N 37°57' E 023°38'8 8.3
2016-Jul-21 20:34N 37°49' E 023°41'2824.0
2016-Jul-21 19:23N 37°33' E 024°11'2624.8
2016-Jul-21 18:19N 37°31' E 024°44'1412.2
2016-Jul-21 17:12N 37°27' E 025°00'1523.5
2016-Jul-21 16:33N 37°28' E 025°19'1313.0
2016-Jul-21 15:34N 37°35' E 025°33'3 0.5
2016-Jul-21 10:33N 37°37' E 025°35'1515.2
2016-Jul-21 09:33N 37°28' E 025°19'6819.9
2016-Jul-21 06:08N 37°37' E 023°55'1323.1
2016-Jul-21 05:34N 37°45' E 023°41'1211.9
2016-Jul-21 04:33N 37°57' E 023°38'0 0.0
2016-Jul-21 03:33N 37°57' E 023°38'0 0.1
2016-Jul-21 02:34N 37°57' E 023°38'1918.8
2016-Jul-21 01:34N 37°40' E 023°50'5824.0
2016-Jul-20 23:08N 37°31' E 025°03'1323.4
2016-Jul-20 22:34N 37°33' E 025°19'16011.4
2016-Jul-20 08:32N 40°12' E 024°48'2324.0
2016-Jul-20 07:34N 40°33' E 024°34'2424.0
2016-Jul-20 06:34N 40°55' E 024°24'1 0.8
2016-Jul-20 05:33N 40°56' E 024°25'0 0.0
2016-Jul-20 04:33N 40°56' E 024°25'2322.9
2016-Jul-20 03:34N 40°34' E 024°33'2825.7
2016-Jul-20 02:28N 40°09' E 024°50'163 9.6
2016-Jul-19 09:34N 37°28' E 025°19'8517.0
2016-Jul-19 04:33N 37°57' E 023°38'0 0.0
2016-Jul-19 03:33N 37°57' E 023°38'0 0.0
2016-Jul-19 02:33N 37°57' E 023°38'0 0.0
2016-Jul-19 01:33N 37°57' E 023°38'0 0.0
2016-Jul-19 00:33N 37°57' E 023°38'0 0.0
2016-Jul-18 23:33N 37°57' E 023°38'0 0.0
2016-Jul-18 22:33N 37°57' E 023°38'1615.6
2016-Jul-18 21:34N 37°42' E 023°45'2524.6
2016-Jul-18 20:32N 37°32' E 024°14'2424.7
2016-Jul-18 19:34N 37°31' E 024°44'1512.3
2016-Jul-18 18:21N 37°27' E 025°03'1317.1
2016-Jul-18 17:33N 37°28' E 025°19'0 0.0
2016-Jul-18 09:33N 37°28' E 025°19'6819.5
2016-Jul-18 06:04N 37°38' E 023°55'1224.4
2016-Jul-18 05:34N 37°44' E 023°41'1313.0
2016-Jul-18 04:34N 37°57' E 023°38'0 0.0
2016-Jul-18 03:34N 37°57' E 023°38'0 0.0
2016-Jul-18 02:34N 37°57' E 023°38'0 0.0
2016-Jul-18 01:34N 37°57' E 023°38'0 0.0
2016-Jul-18 00:34N 37°57' E 023°38'0 0.0
2016-Jul-17 23:34N 37°57' E 023°38'0 0.0
2016-Jul-17 22:33N 37°57' E 023°38'1616.5
2016-Jul-17 21:33N 37°42' E 023°48'2424.1
2016-Jul-17 20:34N 37°32' E 024°15'2424.5
2016-Jul-17 19:33N 37°31' E 024°46'1412.7
2016-Jul-17 18:25N 37°27' E 025°03'2217.2
2016-Jul-17 17:08N 37°32' E 025°31'10 1.3
2016-Jul-17 09:33N 37°28' E 025°19'6419.7
2016-Jul-17 06:19N 37°36' E 023°60'2715.2
2016-Jul-17 04:33N 37°57' E 023°38'0 0.0
2016-Jul-17 03:33N 37°57' E 023°38'0 0.0
2016-Jul-17 02:33N 37°57' E 023°38'0 0.0
2016-Jul-17 01:33N 37°57' E 023°38'  
Track history (hours):
 
Tides and Currents Weather Stations Pressure Air Temp Water Temp Dewpoint Dewpoint Depression Visibility Wind Speed Wind Dir Waves Ship Positions

Nissos Mykonos

Last reported at 2016-Jul-27 01:20 UTC. Time now 2016-Jul-27 01:50 UTC.
Position N 40°05' E 024°53'.

Length 141 m; draft 5.2 m.

Type: Passenger vessel. MMSI: 240389000.

Date/timePositionNaut miles runAvg speedWind from/ knotsBaromVisibWave heightAir tempDewpointWater temp
2016-Jul-27 01:20N 40°05' E 024°53'15910.1
2016-Jul-26 09:33N 37°28' E 025°19'8019.9
2016-Jul-26 05:33N 37°44' E 023°41'1312.6
2016-Jul-26 04:33N 37°57' E 023°38'0 0.0
2016-Jul-26 03:33N 37°57' E 023°38'0 0.0
2016-Jul-26 02:33N 37°57' E 023°38'0 0.0
2016-Jul-26 01:33N 37°57' E 023°38'0 0.0
2016-Jul-26 00:33N 37°57' E 023°38'0 0.0
2016-Jul-25 23:33N 37°57' E 023°38'0 0.0
2016-Jul-25 22:34N 37°57' E 023°38'1515.0
2016-Jul-25 21:33N 37°43' E 023°46'2524.7
2016-Jul-25 20:32N 37°32' E 024°15'2424.7
2016-Jul-25 19:33N 37°31' E 024°45'1512.0
2016-Jul-25 18:20N 37°27' E 025°03'1317.0
2016-Jul-25 17:34N 37°28' E 025°19'68 5.9
2016-Jul-25 06:06N 37°38' E 023°55'1323.7
2016-Jul-25 05:33N 37°44' E 023°41'1312.8
2016-Jul-25 04:33N 37°57' E 023°38'0 0.0
2016-Jul-25 03:33N 37°57' E 023°38'0 0.0
2016-Jul-25 02:33N 37°57' E 023°38'0 0.0
2016-Jul-25 01:33N 37°57' E 023°38'0 0.0
2016-Jul-25 00:33N 37°57' E 023°38'0 0.0
2016-Jul-24 23:33N 37°57' E 023°38'3 2.9
2016-Jul-24 22:34N 37°54' E 023°38'2322.8
2016-Jul-24 21:32N 37°37' E 023°58'3124.4
2016-Jul-24 20:17N 37°31' E 024°36'3417.1
2016-Jul-24 18:16N 37°28' E 025°19'1115.3
2016-Jul-24 17:33N 37°33' E 025°31'11 1.4
2016-Jul-24 09:33N 37°28' E 025°19'6719.7
2016-Jul-24 06:09N 37°37' E 023°56'1423.4
2016-Jul-24 05:34N 37°44' E 023°41'1212.4
2016-Jul-24 04:33N 37°57' E 023°38'0 0.0
2016-Jul-24 03:33N 37°57' E 023°38'0 0.0
2016-Jul-24 02:33N 37°57' E 023°38'0 0.0
2016-Jul-24 01:33N 37°57' E 023°38'0 0.0
2016-Jul-24 00:33N 37°57' E 023°38'0 0.0
2016-Jul-23 23:33N 37°57' E 023°38'0 0.0
2016-Jul-23 22:33N 37°57' E 023°38'0 0.0
2016-Jul-23 21:33N 37°57' E 023°38'9 8.6
2016-Jul-23 20:34N 37°48' E 023°41'2724.2
2016-Jul-23 19:25N 37°33' E 024°10'2124.5
2016-Jul-23 18:33N 37°31' E 024°37'2015.2
2016-Jul-23 17:12N 37°27' E 025°02'1421.0
2016-Jul-23 16:33N 37°28' E 025°19'9 1.5
2016-Jul-23 10:19N 37°31' E 025°31'1012.6
2016-Jul-23 09:34N 37°28' E 025°19'6719.7
2016-Jul-23 06:09N 37°37' E 023°56'2414.8
2016-Jul-23 04:33N 37°57' E 023°38'0 0.0
2016-Jul-23 03:33N 37°57' E 023°38'0 0.0
2016-Jul-23 02:33N 37°57' E 023°38'0 0.0
2016-Jul-23 01:33N 37°57' E 023°38'0 0.0
2016-Jul-23 00:33N 37°57' E 023°38'0 0.0
2016-Jul-22 23:33N 37°57' E 023°38'0 0.0
2016-Jul-22 22:33N 37°57' E 023°38'1515.1
2016-Jul-22 21:34N 37°42' E 023°45'2524.7
2016-Jul-22 20:33N 37°32' E 024°13'2424.5
2016-Jul-22 19:34N 37°31' E 024°44'1512.4
2016-Jul-22 18:20N 37°27' E 025°02'1417.4
2016-Jul-22 17:33N 37°28' E 025°19'0 0.0
2016-Jul-22 09:33N 37°28' E 025°19'8120.1
2016-Jul-22 05:34N 37°45' E 023°40'1111.3
2016-Jul-22 04:33N 37°57' E 023°38'0 0.0
2016-Jul-22 03:33N 37°57' E 023°38'0 0.0
2016-Jul-22 02:33N 37°57' E 023°38'0 0.0
2016-Jul-22 01:33N 37°57' E 023°38'0 0.0
2016-Jul-22 00:33N 37°57' E 023°38'0 0.0
2016-Jul-21 23:33N 37°57' E 023°38'0 0.0
2016-Jul-21 22:33N 37°57' E 023°38'0 0.0
2016-Jul-21 21:33N 37°57' E 023°38'8 8.3
2016-Jul-21 20:34N 37°49' E 023°41'2824.0
2016-Jul-21 19:23N 37°33' E 024°11'2624.8
2016-Jul-21 18:19N 37°31' E 024°44'1412.2
2016-Jul-21 17:12N 37°27' E 025°00'1523.5
2016-Jul-21 16:33N 37°28' E 025°19'1313.0
2016-Jul-21 15:34N 37°35' E 025°33'3 0.5
2016-Jul-21 10:33N 37°37' E 025°35'1515.2
2016-Jul-21 09:33N 37°28' E 025°19'6819.9
2016-Jul-21 06:08N 37°37' E 023°55'1323.1
2016-Jul-21 05:34N 37°45' E 023°41'1211.9
2016-Jul-21 04:33N 37°57' E 023°38'0 0.0
2016-Jul-21 03:33N 37°57' E 023°38'0 0.1
2016-Jul-21 02:34N 37°57' E 023°38'1918.8
2016-Jul-21 01:34N 37°40' E 023°50'5824.0
2016-Jul-20 23:08N 37°31' E 025°03'1323.4
2016-Jul-20 22:34N 37°33' E 025°19'16011.4
2016-Jul-20 08:32N 40°12' E 024°48'2324.0
2016-Jul-20 07:34N 40°33' E 024°34'2424.0
2016-Jul-20 06:34N 40°55' E 024°24'1 0.8
2016-Jul-20 05:33N 40°56' E 024°25'0 0.0
2016-Jul-20 04:33N 40°56' E 024°25'2322.9
2016-Jul-20 03:34N 40°34' E 024°33'2825.7
2016-Jul-20 02:28N 40°09' E 024°50'163 9.6
2016-Jul-19 09:34N 37°28' E 025°19'8517.0
2016-Jul-19 04:33N 37°57' E 023°38'0 0.0
2016-Jul-19 03:33N 37°57' E 023°38'0 0.0
2016-Jul-19 02:33N 37°57' E 023°38'0 0.0
2016-Jul-19 01:33N 37°57' E 023°38'0 0.0
2016-Jul-19 00:33N 37°57' E 023°38'0 0.0
2016-Jul-18 23:33N 37°57' E 023°38'0 0.0
2016-Jul-18 22:33N 37°57' E 023°38'1615.6
2016-Jul-18 21:34N 37°42' E 023°45'2524.6
2016-Jul-18 20:32N 37°32' E 024°14'2424.7
2016-Jul-18 19:34N 37°31' E 024°44'1512.3
2016-Jul-18 18:21N 37°27' E 025°03'1317.1
2016-Jul-18 17:33N 37°28' E 025°19'0 0.0
2016-Jul-18 09:33N 37°28' E 025°19'6819.5
2016-Jul-18 06:04N 37°38' E 023°55'1224.4
2016-Jul-18 05:34N 37°44' E 023°41'1313.0
2016-Jul-18 04:34N 37°57' E 023°38'0 0.0
2016-Jul-18 03:34N 37°57' E 023°38'0 0.0
2016-Jul-18 02:34N 37°57' E 023°38'0 0.0
2016-Jul-18 01:34N 37°57' E 023°38'0 0.0
2016-Jul-18 00:34N 37°57' E 023°38'0 0.0
2016-Jul-17 23:34N 37°57' E 023°38'0 0.0
2016-Jul-17 22:33N 37°57' E 023°38'1616.5
2016-Jul-17 21:33N 37°42' E 023°48'2424.1
2016-Jul-17 20:34N 37°32' E 024°15'2424.5
2016-Jul-17 19:33N 37°31' E 024°46'1412.7
2016-Jul-17 18:25N 37°27' E 025°03'2217.2
2016-Jul-17 17:08N 37°32' E 025°31'10 1.3
2016-Jul-17 09:33N 37°28' E 025°19'6419.7
2016-Jul-17 06:19N 37°36' E 023°60'2715.2
2016-Jul-17 04:33N 37°57' E 023°38'0 0.0
2016-Jul-17 03:33N 37°57' E 023°38'0 0.0
2016-Jul-17 02:33N 37°57' E 023°38'0 0.0
2016-Jul-17 01:33N 37°57' E 023°38'  

Dump ship's entire track history